createdAt,value
2022-10-09T00:11:04.997Z,0.00
2022-10-09T00:23:05.456Z,0.00
2022-10-09T00:35:05.901Z,0.11
2022-10-09T00:47:06.353Z,0.00
2022-10-09T00:59:06.775Z,0.61
2022-10-09T01:11:07.422Z,0.19
2022-10-09T01:23:07.701Z,0.55
2022-10-09T01:35:08.140Z,0.26
2022-10-09T01:47:08.597Z,0.46
2022-10-09T01:59:13.491Z,0.87
2022-10-09T02:11:09.501Z,0.15
2022-10-09T02:23:09.960Z,0.25
2022-10-09T02:35:10.420Z,0.47
2022-10-09T02:47:10.899Z,0.07
2022-10-09T02:59:11.347Z,0.70
2022-10-09T03:11:11.758Z,1.19
2022-10-09T03:23:12.273Z,0.55
2022-10-09T03:35:12.729Z,0.85
2022-10-09T03:47:13.182Z,0.64
2022-10-09T03:59:13.612Z,1.20
2022-10-09T04:11:14.079Z,0.31
2022-10-09T04:23:14.539Z,0.51
2022-10-09T04:35:15.003Z,0.79
2022-10-09T04:47:15.427Z,1.40
2022-10-09T04:59:15.878Z,1.03
2022-10-09T05:11:16.629Z,0.80
2022-10-09T05:23:16.767Z,1.02
2022-10-09T05:35:17.191Z,0.90
2022-10-09T05:47:17.655Z,1.16
2022-10-09T05:59:18.173Z,0.67
2022-10-09T06:11:18.624Z,0.16
2022-10-09T06:23:19.016Z,0.19
2022-10-09T06:35:19.486Z,0.46
2022-10-09T06:47:19.982Z,0.25
2022-10-09T06:59:20.405Z,0.99
2022-10-09T07:11:20.864Z,0.88
2022-10-09T07:23:21.315Z,0.24
2022-10-09T07:35:21.790Z,0.83
2022-10-09T07:47:22.239Z,1.56
2022-10-09T07:59:22.685Z,0.88
2022-10-09T08:11:23.134Z,1.24
2022-10-09T08:23:23.551Z,2.90
2022-10-09T08:35:24.024Z,2.06
2022-10-09T08:47:24.519Z,3.48
2022-10-09T08:59:24.950Z,2.67
2022-10-09T09:11:25.396Z,3.53
2022-10-09T09:23:25.861Z,4.56
2022-10-09T09:35:26.298Z,1.97
2022-10-09T09:47:26.760Z,0.77
2022-10-09T09:59:27.238Z,3.17
2022-10-09T10:11:27.692Z,2.95
2022-10-09T10:23:28.136Z,2.05
2022-10-09T10:35:28.581Z,2.02
2022-10-09T10:47:29.038Z,1.30
2022-10-09T10:59:29.523Z,1.67
2022-10-09T11:11:29.946Z,1.44
2022-10-09T11:23:30.370Z,1.33
2022-10-09T11:35:30.860Z,1.97
2022-10-09T11:47:31.308Z,1.62
2022-10-09T11:59:31.766Z,1.66
2022-10-09T12:11:32.222Z,1.38
2022-10-09T12:23:33.122Z,2.24
2022-10-09T12:35:33.165Z,3.65
2022-10-09T12:47:33.603Z,1.68
2022-10-09T12:59:34.051Z,1.51
2022-10-09T13:11:34.488Z,1.12
2022-10-09T13:23:35.016Z,0.68
2022-10-09T13:35:35.385Z,1.17
2022-10-09T13:47:35.853Z,0.22
2022-10-09T13:59:36.333Z,0.56
2022-10-09T14:11:36.791Z,0.53
2022-10-09T14:23:37.234Z,0.74
2022-10-09T14:35:37.668Z,0.47
2022-10-09T14:47:38.158Z,0.48
2022-10-09T14:59:38.608Z,0.50
2022-10-09T15:11:39.060Z,0.24
2022-10-09T15:23:39.493Z,0.17
2022-10-09T15:35:39.981Z,0.17
2022-10-09T15:47:51.026Z,0.03
2022-10-09T15:59:40.886Z,0.05
2022-10-09T16:11:41.299Z,0.00
2022-10-09T16:23:41.813Z,0.00
2022-10-09T16:35:42.255Z,0.01
2022-10-09T16:47:44.173Z,0.00
2022-10-09T16:59:43.148Z,0.00
2022-10-09T17:11:43.625Z,0.00
2022-10-09T17:23:44.062Z,0.01
2022-10-09T17:35:44.507Z,0.00
2022-10-09T17:47:44.964Z,0.00
2022-10-09T17:59:45.412Z,0.00
2022-10-09T18:11:45.872Z,0.00
2022-10-09T18:23:46.279Z,0.00
2022-10-09T18:35:46.781Z,0.00
2022-10-09T18:47:47.242Z,0.00
2022-10-09T18:59:47.716Z,0.00
2022-10-09T19:11:48.125Z,0.00
2022-10-09T19:23:48.542Z,0.00
2022-10-09T19:35:49.064Z,0.00
2022-10-09T19:47:54.108Z,1.17
2022-10-09T19:59:49.926Z,0.03
2022-10-09T20:11:50.404Z,0.00
2022-10-09T20:23:50.809Z,0.01
2022-10-09T20:35:51.312Z,0.00
2022-10-09T20:47:51.764Z,0.00
2022-10-09T20:59:52.205Z,0.00
2022-10-09T21:11:52.672Z,0.00
2022-10-09T21:23:53.133Z,0.00
2022-10-09T21:35:53.560Z,0.00
2022-10-09T21:47:54.023Z,0.00
2022-10-09T21:59:54.507Z,0.00
2022-10-09T22:11:54.915Z,0.10
2022-10-09T22:23:55.372Z,0.00
2022-10-09T22:35:55.829Z,0.00
2022-10-09T22:47:56.295Z,0.00
2022-10-09T22:59:56.727Z,0.04
2022-10-09T23:11:57.179Z,0.04
2022-10-09T23:23:57.640Z,0.47
2022-10-09T23:35:58.121Z,0.46
2022-10-09T23:47:58.554Z,0.05
2022-10-09T23:59:59.001Z,0.00
